Time;durP1;ratioP1;P1;durP2;ratioP2;P2;SDS_P1;SDS_P2;PMS_P1;PMS_P2;Temp;Humidity;BMP_temperature;BMP_pressure;BME280_temperature;BME280_humidity;BME280_pressure;Samples;Min_cycle;Max_cycle;Signal;HPM_P1;HPM_P2
2022/12/11 00:02:04;;;;;;;57.85;21.10;;;;;;;0.23;100.00;97771.94;2249298;79;21033;-58
2022/12/11 00:05:05;;;;;;;57.45;21.10;;;;;;;0.21;100.00;97772.88;2249041;79;21061;-58
2022/12/11 00:08:07;;;;;;;58.02;21.30;;;;;;;0.24;100.00;97763.73;2248984;79;21137;-58
2022/12/11 00:11:08;;;;;;;54.65;21.17;;;;;;;0.29;100.00;97761.38;2249137;79;21064;-58
2022/12/11 00:14:09;;;;;;;52.80;19.62;;;;;;;0.26;100.00;97754.19;2249303;79;21538;-58
2022/12/11 00:17:11;;;;;;;56.50;19.20;;;;;;;0.17;100.00;97745.05;2249024;79;21093;-59
2022/12/11 00:20:12;;;;;;;52.30;19.85;;;;;;;0.17;100.00;97751.50;2249126;79;21029;-58
2022/12/11 00:23:14;;;;;;;52.55;19.00;;;;;;;0.21;100.00;97740.64;2249239;79;21034;-58
2022/12/11 00:26:15;;;;;;;51.05;18.42;;;;;;;0.14;100.00;97742.16;2249047;79;21095;-58
2022/12/11 00:29:16;;;;;;;53.70;18.65;;;;;;;0.10;100.00;97744.88;2249236;79;21032;-58
2022/12/11 00:32:18;;;;;;;48.08;18.48;;;;;;;0.04;100.00;97740.78;2249100;79;21020;-58
2022/12/11 00:35:19;;;;;;;47.05;17.67;;;;;;;0.07;100.00;97748.44;2249240;79;21496;-58
2022/12/11 00:38:21;;;;;;;50.35;17.65;;;;;;;0.10;100.00;97739.30;2249100;79;21017;-58
2022/12/11 00:41:22;;;;;;;48.23;17.92;;;;;;;0.06;100.00;97736.43;2249520;79;21495;-58
2022/12/11 00:44:24;;;;;;;44.27;16.07;;;;;;;0.07;100.00;97733.39;2248988;79;21076;-58
2022/12/11 00:47:25;;;;;;;42.10;16.10;;;;;;;0.12;100.00;97730.21;2249397;79;21523;-58
2022/12/11 00:50:27;;;;;;;45.23;17.00;;;;;;;0.11;100.00;97716.92;2249217;79;21037;-58
2022/12/11 00:53:29;;;;;;;45.23;16.20;;;;;;;0.08;100.00;97718.32;2248856;79;21494;-58
2022/12/11 00:56:30;;;;;;;46.40;17.07;;;;;;;0.09;100.00;97709.70;2249082;79;21063;-58
2022/12/11 00:59:32;;;;;;;45.40;16.20;;;;;;;0.05;100.00;97707.66;2249045;79;21531;-58
2022/12/11 01:02:33;;;;;;;40.85;15.38;;;;;;;0.05;100.00;97710.24;2249632;79;21028;-58
2022/12/11 01:05:35;;;;;;;38.35;14.45;;;;;;;0.04;100.00;97711.12;2249007;79;21103;-58
2022/12/11 01:08:36;;;;;;;43.00;16.37;;;;;;;-0.06;100.00;97709.36;2252555;79;21092;-58
2022/12/11 01:11:37;;;;;;;43.87;15.85;;;;;;;-0.01;100.00;97707.89;2256176;79;21032;-58
2022/12/11 01:14:39;;;;;;;45.75;16.85;;;;;;;-0.02;100.00;97710.08;2255864;79;21476;-58
2022/12/11 01:17:40;;;;;;;47.58;18.20;;;;;;;-0.02;100.00;97703.62;2256190;79;20991;-58
2022/12/11 01:20:42;;;;;;;45.03;16.12;;;;;;;-0.01;100.00;97711.77;2256576;79;21496;-58
2022/12/11 01:23:43;;;;;;;49.73;18.35;;;;;;;0.03;100.00;97711.19;2256263;79;21044;-58
2022/12/11 01:26:45;;;;;;;52.70;19.85;;;;;;;0.01;100.00;97700.10;2256376;79;21548;-58
2022/12/11 01:29:46;;;;;;;52.27;18.37;;;;;;;-0.01;100.00;97702.28;2256426;79;21075;-58
2022/12/11 01:32:48;;;;;;;48.85;17.48;;;;;;;0.06;100.00;97705.91;2256429;79;21044;-58
2022/12/11 01:35:49;;;;;;;48.13;17.37;;;;;;;0.09;100.00;97712.28;2256222;79;21048;-58
2022/12/11 01:38:53;;;;;;;49.88;18.35;;;;;;;0.03;100.00;97692.71;2256038;79;21088;-58
2022/12/11 01:41:54;;;;;;;49.73;16.60;;;;;;;0.05;100.00;97692.66;2229475;79;20965;-58
2022/12/11 01:44:56;;;;;;;51.48;18.55;;;;;;;0.01;100.00;97694.95;2256330;79;21127;-58
2022/12/11 01:47:57;;;;;;;55.98;19.10;;;;;;;0.04;100.00;97697.41;2256132;79;21040;-58
2022/12/11 01:50:59;;;;;;;53.03;19.27;;;;;;;-0.05;100.00;97684.41;2256527;79;21028;-57
2022/12/11 01:54:00;;;;;;;52.17;18.75;;;;;;;0.07;100.00;97685.27;2256061;79;21080;-58
2022/12/11 01:57:02;;;;;;;54.40;21.07;;;;;;;0.01;100.00;97685.92;2256357;79;21037;-58
2022/12/11 02:00:04;;;;;;;53.80;20.70;;;;;;;0.09;100.00;97683.91;2256091;79;21016;-58
2022/12/11 02:03:05;;;;;;;53.23;20.48;;;;;;;0.05;100.00;97682.34;2256506;79;21259;-58
2022/12/11 02:06:07;;;;;;;53.50;19.15;;;;;;;0.20;100.00;97666.73;2255937;79;21031;-58
2022/12/11 02:09:08;;;;;;;51.00;19.67;;;;;;;0.21;100.00;97659.40;2256184;79;21488;-58
2022/12/11 02:12:10;;;;;;;56.50;20.25;;;;;;;0.21;100.00;97650.38;2256416;79;21029;-58
2022/12/11 02:15:11;;;;;;;53.58;20.48;;;;;;;0.23;100.00;97661.45;2256566;79;21496;-57
2022/12/11 02:18:13;;;;;;;54.35;20.88;;;;;;;0.18;100.00;97662.92;2256495;79;21024;-58
2022/12/11 02:21:14;;;;;;;50.35;18.48;;;;;;;0.19;100.00;97665.91;2256684;79;21495;-58
2022/12/11 02:24:16;;;;;;;52.62;18.77;;;;;;;0.14;100.00;97671.24;2256369;79;21012;-58
2022/12/11 02:27:17;;;;;;;51.98;19.70;;;;;;;0.02;100.00;97675.55;2256719;79;21095;-58
2022/12/11 02:30:19;;;;;;;51.95;19.25;;;;;;;0.05;100.00;97670.28;2256334;79;21511;-58
2022/12/11 02:33:20;;;;;;;50.65;19.95;;;;;;;0.04;100.00;97678.07;2256413;79;21028;-58
2022/12/11 02:36:22;;;;;;;52.43;19.92;;;;;;;0.08;100.00;97680.47;2256301;79;21000;-58
2022/12/11 02:39:23;;;;;;;49.83;18.55;;;;;;;0.02;100.00;97680.71;2256416;79;21029;-58
2022/12/11 02:42:25;;;;;;;48.38;19.20;;;;;;;0.06;100.00;97678.84;2256292;79;21059;-58
2022/12/11 02:45:26;;;;;;;45.70;17.50;;;;;;;0.03;100.00;97672.09;2256537;79;21058;-58
2022/12/11 02:48:28;;;;;;;52.62;19.95;;;;;;;-0.03;100.00;97666.70;2256418;79;21033;-58
2022/12/11 02:51:29;;;;;;;49.05;18.12;;;;;;;-0.05;100.00;97679.25;2256522;79;21025;-58
2022/12/11 02:54:31;;;;;;;48.42;18.27;;;;;;;-0.05;100.00;97672.81;2256220;79;21072;-58
2022/12/11 02:57:32;;;;;;;45.28;18.27;;;;;;;-0.01;100.00;97672.62;2256549;79;21524;-57
2022/12/11 03:00:34;;;;;;;46.85;16.32;;;;;;;0.03;100.00;97675.95;2256306;79;21016;-58
2022/12/11 03:03:35;;;;;;;44.10;16.15;;;;;;;0.03;100.00;97667.36;2256352;79;21585;-58
2022/12/11 03:06:36;;;;;;;45.08;16.93;;;;;;;0.01;100.00;97662.72;2256326;79;21064;-57
2022/12/11 03:09:38;;;;;;;44.18;16.50;;;;;;;0.01;100.00;97662.72;2255958;79;21075;-58
2022/12/11 03:12:40;;;;;;;43.00;16.55;;;;;;;0.01;100.00;97657.10;2256937;79;21028;-58
2022/12/11 03:15:41;;;;;;;44.57;17.47;;;;;;;-0.02;100.00;97655.94;2256156;79;21063;-58
2022/12/11 03:18:43;;;;;;;43.48;16.87;;;;;;;0.01;100.00;97656.27;2256513;79;22172;-58
2022/12/11 03:21:44;;;;;;;45.43;17.10;;;;;;;0.03;100.00;97649.31;2256375;79;21072;-58
2022/12/11 03:24:46;;;;;;;42.25;16.25;;;;;;;0.03;100.00;97656.62;2256177;79;21088;-58
2022/12/11 03:27:47;;;;;;;42.58;15.90;;;;;;;0.01;100.00;97653.70;2256378;79;21009;-58
2022/12/11 03:30:49;;;;;;;41.92;16.97;;;;;;;-0.04;100.00;97648.72;2256013;79;21075;-58
2022/12/11 03:33:50;;;;;;;45.10;17.37;;;;;;;-0.06;100.00;97645.34;2256631;79;21057;-58
2022/12/11 03:36:52;;;;;;;44.30;16.32;;;;;;;-0.03;100.00;97643.50;2256238;79;21068;-57
2022/12/11 03:39:53;;;;;;;43.63;16.85;;;;;;;-0.02;100.00;97643.05;2256563;79;21029;-58
2022/12/11 03:42:55;;;;;;;43.05;16.05;;;;;;;-0.05;100.00;97644.45;2256228;79;21033;-58
2022/12/11 03:45:56;;;;;;;40.98;15.45;;;;;;;-0.06;100.00;97640.18;2256157;79;21629;-58
2022/12/11 03:48:57;;;;;;;45.25;15.40;;;;;;;-0.06;100.00;97650.49;2256337;79;21024;-58
2022/12/11 03:51:59;;;;;;;45.50;17.07;;;;;;;-0.15;100.00;97652.96;2256206;79;21067;-58
2022/12/11 03:55:00;;;;;;;42.43;16.65;;;;;;;-0.12;100.00;97650.27;2256288;79;21049;-58
2022/12/11 03:58:02;;;;;;;41.50;14.53;;;;;;;-0.13;100.00;97651.19;2256112;79;21100;-57
2022/12/11 04:01:03;;;;;;;37.05;13.83;;;;;;;-0.13;100.00;97646.03;2256323;79;21017;-58
2022/12/11 04:04:04;;;;;;;41.33;15.38;;;;;;;-0.26;100.00;97644.34;2256171;79;21016;-58
2022/12/11 04:07:06;;;;;;;39.95;15.85;;;;;;;-0.27;100.00;97646.98;2256433;79;21621;-58
2022/12/11 04:10:07;;;;;;;41.68;14.98;;;;;;;-0.23;100.00;97625.33;2251129;79;21057;-58
2022/12/11 04:13:09;;;;;;;38.02;14.85;;;;;;;-0.23;100.00;97630.48;2249448;79;21020;-58
2022/12/11 04:16:10;;;;;;;39.90;15.15;;;;;;;-0.21;100.00;97626.12;2249253;79;21005;-58
2022/12/11 04:25:18;;;;;;;39.18;14.38;;;;;;;-0.19;100.00;97616.16;2220292;79;21492;-58
2022/12/11 04:28:20;;;;;;;38.67;14.38;;;;;;;-0.23;100.00;97610.73;2248737;79;21067;-58
2022/12/11 04:31:21;;;;;;;34.40;12.75;;;;;;;-0.28;100.00;97601.48;2249454;79;21416;-58
2022/12/11 04:34:23;;;;;;;38.98;13.70;;;;;;;-0.31;100.00;97601.59;2249184;79;21029;-58
2022/12/11 04:37:24;;;;;;;39.90;14.68;;;;;;;-0.30;100.00;97601.54;2249148;79;21091;-58
2022/12/11 04:40:26;;;;;;;36.95;14.00;;;;;;;-0.29;100.00;97595.92;2249342;79;21020;-58
2022/12/11 04:43:27;;;;;;;38.88;14.53;;;;;;;-0.28;100.00;97598.91;2249217;79;21041;-58
2022/12/11 04:46:29;;;;;;;36.45;13.93;;;;;;;-0.26;100.00;97603.11;2249474;79;21057;-58
2022/12/11 04:49:30;;;;;;;38.33;14.27;;;;;;;-0.26;100.00;97599.25;2249423;79;21061;-58
2022/12/11 04:52:32;;;;;;;38.17;14.07;;;;;;;-0.27;100.00;97596.27;2249320;79;21505;-58
2022/12/11 04:55:33;;;;;;;32.83;12.00;;;;;;;-0.27;100.00;97596.27;2248796;79;21004;-57
2022/12/11 04:58:34;;;;;;;33.85;12.55;;;;;;;-0.29;100.00;97601.91;2249182;79;21513;-57
2022/12/11 05:01:36;;;;;;;33.73;12.37;;;;;;;-0.31;100.00;97592.12;2249332;79;21040;-57
2022/12/11 05:04:37;;;;;;;34.73;13.05;;;;;;;-0.36;100.00;97587.57;2249140;79;21139;-58
2022/12/11 05:07:39;;;;;;;35.92;13.15;;;;;;;-0.40;100.00;97592.02;2249347;79;21029;-58
2022/12/11 05:10:41;;;;;;;34.53;12.13;;;;;;;-0.41;100.00;97588.20;2249115;79;21057;-57
2022/12/11 05:13:42;;;;;;;34.08;12.25;;;;;;;-0.43;100.00;97590.84;2249140;79;21016;-58
2022/12/11 05:16:44;;;;;;;33.20;11.80;;;;;;;-0.44;100.00;97598.17;2249091;79;21016;-58
2022/12/11 05:19:45;;;;;;;31.40;10.90;;;;;;;-0.51;100.00;97595.42;2249329;79;21040;-58
2022/12/11 05:22:47;;;;;;;33.28;11.85;;;;;;;-0.51;100.00;97603.15;2248846;79;21069;-58
2022/12/11 05:25:48;;;;;;;33.05;11.15;;;;;;;-0.57;100.00;97582.77;2249101;79;21033;-58
2022/12/11 05:28:50;;;;;;;37.53;12.53;;;;;;;-0.59;100.00;97586.69;2248692;79;20985;-58
2022/12/11 05:31:51;;;;;;;35.17;12.33;;;;;;;-0.60;100.00;97575.16;2249302;79;21524;-58
2022/12/11 05:34:53;;;;;;;33.00;12.40;;;;;;;-0.63;100.00;97570.95;2249006;79;21016;-58
2022/12/11 05:37:54;;;;;;;32.45;11.43;;;;;;;-0.62;100.00;97568.74;2249426;79;21500;-58
2022/12/11 05:40:56;;;;;;;37.35;14.70;;;;;;;-0.62;100.00;97571.32;2249463;79;21029;-58
2022/12/11 05:43:58;;;;;;;32.93;12.10;;;;;;;-0.60;100.00;97575.16;2249164;79;21520;-58
2022/12/11 05:46:59;;;;;;;35.83;13.35;;;;;;;-0.59;100.00;97574.23;2248952;79;21060;-58
2022/12/11 05:50:01;;;;;;;35.15;12.65;;;;;;;-0.62;100.00;97566.62;2249055;79;21588;-58
2022/12/11 05:53:04;;;;;;;34.92;12.78;;;;;;;-0.59;100.00;97566.52;2249304;79;21076;-58
2022/12/11 05:56:05;;;;;;;35.10;12.73;;;;;;;-0.57;100.00;97556.55;2249144;79;21060;-58
2022/12/11 05:59:07;;;;;;;34.90;11.93;;;;;;;-0.61;100.00;97580.73;2249024;79;21044;-58
2022/12/11 06:05:47;;;;;;;35.80;12.58;;;;;;;-0.70;100.00;97558.73;2248917;79;21036;-58
2022/12/11 06:08:50;;;;;;;;;;;;;;;-0.70;100.00;97566.45;2251689;79;20961;-58
2022/12/11 06:11:51;;;;;;;33.10;10.98;;;;;;;-0.68;100.00;97568.97;2249208;79;20138;-58
2022/12/11 06:14:53;;;;;;;31.57;11.10;;;;;;;-0.74;100.00;97555.87;2248877;79;21072;-58
2022/12/11 06:17:54;;;;;;;34.10;11.80;;;;;;;-0.78;100.00;97549.59;2249314;79;21520;-58
2022/12/11 06:20:55;;;;;;;35.10;12.28;;;;;;;-0.79;100.00;97558.21;2249048;79;21056;-58
2022/12/11 06:23:57;;;;;;;30.85;11.08;;;;;;;-0.74;100.00;97552.46;2249449;79;21559;-58
2022/12/11 06:26:59;;;;;;;31.65;11.63;;;;;;;-0.76;100.00;97560.67;2249222;79;21040;-58
2022/12/11 06:30:00;;;;;;;29.90;10.95;;;;;;;-0.81;100.00;97556.98;2248987;79;21057;-58
2022/12/11 06:33:02;;;;;;;26.93;9.03;;;;;;;-0.90;100.00;97581.77;2249159;79;21056;-58
2022/12/11 06:36:03;;;;;;;30.33;9.20;;;;;;;-0.96;100.00;97558.38;2249264;79;21135;-58
2022/12/11 06:39:05;;;;;;;30.02;10.43;;;;;;;-1.00;100.00;97563.22;2249262;79;21037;-57
2022/12/11 06:42:06;;;;;;;29.25;10.78;;;;;;;-0.99;100.00;97547.33;2248963;79;21091;-58
2022/12/11 06:45:08;;;;;;;31.35;11.10;;;;;;;-0.97;100.00;97548.13;2249158;79;21107;-58
2022/12/11 06:48:09;;;;;;;32.45;11.88;;;;;;;-0.95;100.00;97543.75;2248790;79;21039;-58
2022/12/11 06:51:11;;;;;;;31.00;11.33;;;;;;;-0.92;100.00;97552.65;2249237;79;21546;-58
2022/12/11 06:54:13;;;;;;;32.13;11.50;;;;;;;-0.94;100.00;97546.73;2249251;79;21077;-57
2022/12/11 06:57:14;;;;;;;31.85;10.60;;;;;;;-0.93;100.00;97549.70;2249461;79;21557;-58
2022/12/11 07:00:16;;;;;;;27.70;9.80;;;;;;;-0.92;100.00;97550.94;2249328;79;21005;-57
2022/12/11 07:03:17;;;;;;;28.20;9.30;;;;;;;-0.99;100.00;97558.91;2249293;79;21547;-58
2022/12/11 07:06:18;;;;;;;28.65;9.50;;;;;;;-1.01;100.00;97556.84;2249516;79;21035;-58
2022/12/11 07:09:21;;;;;;;30.27;11.12;;;;;;;-1.01;100.00;97564.56;2250118;79;21115;-58
2022/12/11 07:12:23;;;;;;;26.45;9.70;;;;;;;-0.95;100.00;97561.77;2256405;79;21053;-58
2022/12/11 07:15:24;;;;;;;27.98;10.40;;;;;;;-0.92;100.00;97571.95;2256500;79;21040;-58
2022/12/11 07:18:26;;;;;;;31.62;11.45;;;;;;;-0.91;100.00;97567.21;2256395;79;21368;-58
2022/12/11 07:21:27;;;;;;;32.48;11.08;;;;;;;-0.83;100.00;97568.22;2256742;79;21511;-58
2022/12/11 07:24:29;;;;;;;27.20;9.10;;;;;;;-0.78;100.00;97572.77;2256497;79;21063;-58
2022/12/11 07:27:30;;;;;;;27.55;9.40;;;;;;;-0.81;100.00;97575.46;2256366;79;21080;-58
2022/12/11 07:30:31;;;;;;;25.37;8.90;;;;;;;-0.87;100.00;97576.52;2256575;79;21040;-58
2022/12/11 07:33:33;;;;;;;27.82;9.20;;;;;;;-0.92;100.00;97572.82;2256290;79;21119;-58
2022/12/11 07:36:35;;;;;;;24.30;7.42;;;;;;;-0.93;100.00;97571.59;2256473;79;21119;-58
2022/12/11 07:39:36;;;;;;;22.32;7.65;;;;;;;-1.01;100.00;97580.02;2256345;79;21040;-58
2022/12/11 07:42:38;;;;;;;22.95;7.53;;;;;;;-1.03;100.00;97572.34;2256594;79;21072;-57
2022/12/11 07:45:41;;;;;;;24.67;7.33;;;;;;;-1.08;100.00;97568.65;2228768;79;21039;-58
2022/12/11 07:48:43;;;;;;;23.03;7.30;;;;;;;-1.07;100.00;97566.45;2256777;79;21572;-58
2022/12/11 07:51:44;;;;;;;22.98;7.53;;;;;;;-1.06;100.00;97566.84;2256523;79;21040;-58
2022/12/11 07:54:46;;;;;;;24.50;7.78;;;;;;;-1.03;100.00;97584.36;2256197;79;21528;-58
2022/12/11 07:57:47;;;;;;;22.60;7.47;;;;;;;-1.03;100.00;97573.62;2256446;79;21017;-58
2022/12/11 08:00:49;;;;;;;22.97;7.23;;;;;;;-1.02;100.00;97572.75;2256618;79;21085;-58
2022/12/11 08:03:51;;;;;;;24.57;8.18;;;;;;;-1.01;100.00;97590.31;2255938;79;21036;-57
2022/12/11 08:06:52;;;;;;;20.70;6.60;;;;;;;-1.03;100.00;97575.34;2256531;79;21464;-58
2022/12/11 08:09:54;;;;;;;21.15;5.53;;;;;;;-1.03;100.00;97571.06;2256330;79;21072;-59
2022/12/11 08:12:55;;;;;;;22.37;7.08;;;;;;;-1.02;100.00;97566.31;2256766;79;21056;-57
2022/12/11 08:15:57;;;;;;;23.65;7.20;;;;;;;-1.01;100.00;97571.83;2256551;79;21095;-58
2022/12/11 08:18:58;;;;;;;25.02;7.80;;;;;;;-0.91;100.00;97573.64;2256416;79;21037;-58
2022/12/11 08:22:00;;;;;;;25.10;8.18;;;;;;;-0.87;100.00;97566.22;2256711;79;21055;-58
2022/12/11 08:25:01;;;;;;;25.90;8.80;;;;;;;-0.80;100.00;97565.56;2256513;79;21076;-58
2022/12/11 08:28:03;;;;;;;31.70;12.07;;;;;;;-0.75;100.00;97562.36;2256584;79;21032;-58
2022/12/11 08:31:05;;;;;;;30.27;11.28;;;;;;;-0.72;100.00;97581.56;2256288;79;21116;-58
2022/12/11 08:34:06;;;;;;;29.82;10.70;;;;;;;-0.75;100.00;97583.82;2256453;79;21112;-58
2022/12/11 08:37:08;;;;;;;31.23;10.43;;;;;;;-0.80;100.00;97574.12;2256196;79;21079;-58
2022/12/11 08:40:11;;;;;;;30.07;10.80;;;;;;;-0.83;100.00;97551.06;2256583;79;21020;-58
2022/12/11 08:43:13;;;;;;;28.47;9.68;;;;;;;-0.81;100.00;97559.55;2256353;79;21536;-58
2022/12/11 08:46:14;;;;;;;28.83;9.98;;;;;;;-0.87;100.00;97557.20;2256285;79;21048;-58
2022/12/11 08:49:16;;;;;;;27.17;8.77;;;;;;;-0.88;100.00;97573.54;2256817;79;21550;-58
2022/12/11 08:52:18;;;;;;;28.05;8.95;;;;;;;-0.96;100.00;97590.55;2256208;79;21045;-57
2022/12/11 08:55:20;;;;;;;26.70;8.65;;;;;;;-0.90;100.00;97581.31;2256264;79;21515;-58
2022/12/11 08:58:22;;;;;;;28.38;9.75;;;;;;;-0.95;100.00;97578.50;2256066;79;21007;-58
2022/12/11 09:01:23;;;;;;;26.87;9.08;;;;;;;-0.91;100.00;97575.77;2256303;79;21036;-58
2022/12/11 09:04:27;;;;;;;28.15;10.35;;;;;;;-0.82;100.00;97564.77;2229127;79;21004;-58
2022/12/11 09:07:28;;;;;;;26.82;9.13;;;;;;;-0.78;100.00;97570.20;2256747;79;21519;-58
2022/12/11 09:10:30;;;;;;;26.42;8.78;;;;;;;-0.71;100.00;97570.37;2253652;79;20992;-58
2022/12/11 09:13:31;;;;;;;25.82;8.20;;;;;;;-0.80;100.00;97575.41;2249006;79;21040;-58
2022/12/11 09:16:32;;;;;;;25.85;8.98;;;;;;;-0.83;100.00;97577.23;2249498;79;21029;-58
2022/12/11 09:19:34;;;;;;;26.23;8.50;;;;;;;-0.86;100.00;97571.77;2249309;79;21045;-58
2022/12/11 09:22:36;;;;;;;27.40;8.65;;;;;;;-0.91;100.00;97560.31;2249359;79;21040;-58
2022/12/11 09:25:37;;;;;;;26.48;8.65;;;;;;;-0.96;100.00;97567.80;2248909;79;21055;-58
2022/12/11 09:28:39;;;;;;;25.15;7.97;;;;;;;-0.94;100.00;97553.16;2249479;79;21064;-58
2022/12/11 09:31:40;;;;;;;24.55;8.23;;;;;;;-0.89;100.00;97555.97;2248877;79;20937;-57
2022/12/11 09:34:42;;;;;;;25.05;8.05;;;;;;;-0.95;100.00;97554.05;2249446;79;21516;-58
2022/12/11 09:37:43;;;;;;;24.82;7.70;;;;;;;-1.04;100.00;97555.21;2249216;79;21052;-57
2022/12/11 09:40:45;;;;;;;23.05;8.05;;;;;;;-1.03;100.00;97549.18;2249040;79;21080;-58
2022/12/11 09:43:46;;;;;;;26.10;8.23;;;;;;;-0.96;100.00;97540.34;2249227;79;21076;-58
2022/12/11 09:46:48;;;;;;;25.30;8.30;;;;;;;-0.87;100.00;97534.86;2249385;79;21076;-58
2022/12/11 09:49:49;;;;;;;26.47;8.60;;;;;;;-0.86;100.00;97534.44;2249217;79;21087;-58
2022/12/11 09:52:51;;;;;;;26.90;9.20;;;;;;;-0.81;100.00;97549.72;2248933;79;21060;-57
2022/12/11 09:55:52;;;;;;;27.13;9.28;;;;;;;-0.85;100.00;97538.67;2249336;79;21415;-58
2022/12/11 09:58:54;;;;;;;25.80;8.68;;;;;;;-0.87;100.00;97539.19;2249216;79;21049;-58
2022/12/11 10:01:56;;;;;;;26.30;8.93;;;;;;;-0.83;100.00;97541.19;2249321;79;21056;-57
2022/12/11 10:04:58;;;;;;;24.77;8.65;;;;;;;-0.83;100.00;97537.32;2248953;79;21036;-58
2022/12/11 10:07:59;;;;;;;28.90;10.10;;;;;;;-0.89;100.00;97522.50;2249272;79;21069;-58
2022/12/11 10:11:01;;;;;;;27.67;10.15;;;;;;;-0.85;100.00;97525.80;2251950;79;21076;-57
2022/12/11 10:14:02;;;;;;;29.37;10.50;;;;;;;-0.82;100.00;97534.72;2256476;79;21032;-58
2022/12/11 10:17:04;;;;;;;30.05;11.75;;;;;;;-0.76;100.00;97523.33;2256093;79;21047;-58
2022/12/11 10:20:05;;;;;;;27.48;10.53;;;;;;;-0.75;100.00;97515.58;2256077;79;21607;-58
2022/12/11 10:23:06;;;;;;;26.77;10.23;;;;;;;-0.66;100.00;97522.13;2256066;79;21024;-58
2022/12/11 10:26:08;;;;;;;25.62;10.23;;;;;;;-0.72;100.00;97524.48;2256074;79;21595;-58
2022/12/11 10:29:09;;;;;;;27.00;10.32;;;;;;;-0.70;100.00;97514.12;2256264;79;21013;-58
2022/12/11 10:32:11;;;;;;;26.50;9.95;;;;;;;-0.75;100.00;97510.86;2256141;79;21041;-57
2022/12/11 10:35:12;;;;;;;28.80;11.60;;;;;;;-0.72;100.00;97518.05;2256394;79;21041;-58
2022/12/11 10:38:14;;;;;;;27.87;11.18;;;;;;;-0.70;100.00;97491.77;2256337;79;21072;-58
2022/12/11 10:41:15;;;;;;;28.73;12.15;;;;;;;-0.65;100.00;97503.19;2256456;79;21036;-58
2022/12/11 10:44:17;;;;;;;29.27;11.30;;;;;;;-0.67;100.00;97498.55;2256623;79;21084;-57
2022/12/11 10:47:18;;;;;;;29.48;11.20;;;;;;;-0.72;100.00;97505.16;2256456;79;21606;-58
2022/12/11 10:50:20;;;;;;;30.10;11.47;;;;;;;-0.75;100.00;97488.97;2256172;79;20984;-58
2022/12/11 10:53:21;;;;;;;31.50;12.47;;;;;;;-0.75;100.00;97491.12;2256480;79;21519;-57
2022/12/11 10:56:23;;;;;;;28.50;11.22;;;;;;;-0.83;100.00;97490.98;2256284;79;21044;-58
2022/12/11 10:59:25;;;;;;;29.65;11.78;;;;;;;-0.83;100.00;97487.11;2256680;79;21527;-58
2022/12/11 11:02:26;;;;;;;30.95;12.78;;;;;;;-0.79;100.00;97480.97;2256265;79;21040;-58
2022/12/11 11:05:28;;;;;;;28.60;11.75;;;;;;;-0.73;100.00;97475.61;2256272;79;21535;-58
2022/12/11 11:08:30;;;;;;;30.72;12.03;;;;;;;-0.75;100.00;97479.53;2256497;79;21072;-58
2022/12/11 11:11:31;;;;;;;29.42;12.00;;;;;;;-0.72;100.00;97478.13;2256452;79;21587;-57
2022/12/11 11:14:33;;;;;;;28.92;11.10;;;;;;;-0.57;100.00;97468.14;2256463;79;21123;-58
2022/12/11 11:17:34;;;;;;;32.38;13.03;;;;;;;-0.57;100.00;97487.01;2256519;79;21551;-57
2022/12/11 11:20:36;;;;;;;30.23;12.57;;;;;;;-0.56;100.00;97473.66;2256546;79;21051;-57
2022/12/11 11:23:37;;;;;;;29.95;12.20;;;;;;;-0.56;100.00;97473.66;2256210;79;21262;-58
2022/12/11 11:26:39;;;;;;;29.92;11.68;;;;;;;-0.59;100.00;97467.34;2256497;79;21092;-57
2022/12/11 11:29:40;;;;;;;28.90;11.35;;;;;;;-0.66;100.00;97480.92;2256218;79;21033;-58
2022/12/11 11:32:41;;;;;;;32.20;12.23;;;;;;;-0.67;100.00;97465.07;2256291;79;21029;-58
2022/12/11 11:35:43;;;;;;;31.42;12.18;;;;;;;-0.57;100.00;97479.28;2256242;79;21056;-57
2022/12/11 11:38:45;;;;;;;29.92;12.80;;;;;;;-0.55;100.00;97459.91;2256183;79;21080;-58
2022/12/11 11:41:46;;;;;;;29.50;11.73;;;;;;;-0.48;100.00;97465.20;2255945;79;21030;-58
2022/12/11 11:44:49;;;;;;;31.80;13.15;;;;;;;-0.52;100.00;97449.48;2229111;79;21043;-58
2022/12/11 11:47:52;;;;;;;30.15;12.60;;;;;;;-0.56;100.00;97450.05;2256484;79;21056;-58
2022/12/11 11:50:54;;;;;;;30.57;12.60;;;;;;;-0.52;100.00;97455.91;2256219;79;21036;-58
2022/12/11 11:53:56;;;;;;;33.13;13.90;;;;;;;-0.50;100.00;97434.81;2256582;79;21021;-58
2022/12/11 11:56:57;;;;;;;31.13;13.27;;;;;;;-0.45;100.00;97442.36;2256569;79;21088;-58
2022/12/11 11:59:58;;;;;;;33.88;14.03;;;;;;;-0.44;100.00;97444.88;2256622;79;21535;-58
2022/12/11 12:03:00;;;;;;;32.23;14.25;;;;;;;-0.46;100.00;97436.38;2256330;79;21028;-58
2022/12/11 12:06:01;;;;;;;32.42;14.38;;;;;;;-0.55;100.00;97442.73;2256564;79;21536;-58
2022/12/11 12:09:03;;;;;;;32.95;14.00;;;;;;;-0.57;100.00;97444.97;2256146;79;21055;-58
2022/12/11 12:12:04;;;;;;;34.80;15.65;;;;;;;-0.56;100.00;97441.47;2256590;79;21575;-58
2022/12/11 12:15:06;;;;;;;36.00;15.53;;;;;;;-0.55;100.00;97440.58;2256411;79;21048;-57
2022/12/11 12:18:08;;;;;;;35.67;15.20;;;;;;;-0.52;100.00;97439.17;2256485;79;21092;-58
2022/12/11 12:21:09;;;;;;;35.20;14.98;;;;;;;-0.55;100.00;97432.42;2256335;79;21322;-58
2022/12/11 12:24:10;;;;;;;35.30;14.90;;;;;;;-0.55;100.00;97436.72;2256166;79;21040;-58
2022/12/11 12:27:12;;;;;;;35.63;16.00;;;;;;;-0.62;100.00;97430.13;2256403;79;21063;-58
2022/12/11 12:30:13;;;;;;;33.53;14.93;;;;;;;-0.63;100.00;97433.16;2256201;79;21017;-58
2022/12/11 12:33:15;;;;;;;35.73;14.33;;;;;;;-0.61;100.00;97427.48;2256165;79;21539;-58
2022/12/11 12:36:16;;;;;;;34.08;13.60;;;;;;;-0.72;100.00;97439.50;2256245;79;21044;-57
2022/12/11 12:39:17;;;;;;;33.20;13.68;;;;;;;-0.80;100.00;97445.84;2256181;79;21067;-57
2022/12/11 12:42:19;;;;;;;33.20;14.18;;;;;;;-0.90;100.00;97460.78;2256256;79;21025;-58
2022/12/11 12:45:20;;;;;;;30.50;12.43;;;;;;;-0.89;100.00;97454.70;2256108;79;21027;-58
2022/12/11 12:48:22;;;;;;;31.00;12.43;;;;;;;-0.92;100.00;97447.97;2256419;79;20941;-58
2022/12/11 12:51:23;;;;;;;32.60;13.50;;;;;;;-0.97;100.00;97455.45;2256157;79;21017;-58
2022/12/11 12:54:25;;;;;;;32.95;13.22;;;;;;;-1.03;100.00;97467.24;2256346;79;21527;-58
2022/12/11 12:57:26;;;;;;;32.15;12.95;;;;;;;-1.03;100.00;97436.36;2256146;79;21040;-58
2022/12/11 13:00:28;;;;;;;31.48;12.35;;;;;;;-1.02;100.00;97438.05;2256291;79;21525;-58
2022/12/11 13:03:29;;;;;;;32.00;13.18;;;;;;;-0.99;100.00;97435.35;2256329;79;20995;-58
2022/12/11 13:06:30;;;;;;;29.70;12.55;;;;;;;-0.98;100.00;97434.47;2256165;79;21056;-58
2022/12/11 13:09:32;;;;;;;33.45;13.62;;;;;;;-0.92;100.00;97441.95;2256376;79;21037;-57
2022/12/11 13:12:34;;;;;;;30.35;12.73;;;;;;;-0.89;100.00;97435.41;2256054;79;21023;-58
2022/12/11 13:15:35;;;;;;;31.07;13.03;;;;;;;-0.86;100.00;97426.30;2256341;79;21044;-58
2022/12/11 13:18:37;;;;;;;30.90;12.47;;;;;;;-0.94;100.00;97428.31;2256468;79;21358;-58
2022/12/11 13:21:38;;;;;;;32.63;13.20;;;;;;;-0.94;100.00;97428.31;2256656;79;21563;-58
2022/12/11 13:24:40;;;;;;;31.97;11.78;;;;;;;-1.06;100.00;97430.44;2256074;79;21024;-58
2022/12/11 13:27:42;;;;;;;31.17;12.95;;;;;;;-1.24;100.00;97447.36;2256283;79;21535;-58
2022/12/11 13:30:44;;;;;;;;;;;;;;;-1.41;100.00;97435.13;2258858;79;21020;-57
2022/12/11 13:33:45;;;;;;;31.48;12.78;;;;;;;-1.48;100.00;97444.38;2256297;79;20135;-58
2022/12/11 13:36:47;;;;;;;33.73;12.65;;;;;;;-1.58;100.00;97457.98;2256099;79;21075;-58
2022/12/11 13:39:48;;;;;;;31.42;12.40;;;;;;;-1.72;100.00;97460.18;2256378;79;21064;-58
2022/12/11 13:42:50;;;;;;;31.70;12.90;;;;;;;-1.72;100.00;97472.61;2256068;79;20964;-57
2022/12/11 13:45:51;;;;;;;32.83;14.30;;;;;;;-1.84;100.00;97458.44;2256428;79;21139;-57
2022/12/11 13:48:55;;;;;;;33.50;14.10;;;;;;;-1.87;100.00;97442.26;2255210;79;21031;-58
2022/12/11 13:51:56;;;;;;;33.08;14.15;;;;;;;-1.86;100.00;97446.52;2229333;79;21047;-58
2022/12/11 13:54:58;;;;;;;33.67;13.83;;;;;;;-1.86;100.00;97447.80;2255509;79;21558;-58
2022/12/11 13:57:59;;;;;;;34.73;13.97;;;;;;;-1.81;100.00;97447.19;2256340;79;21063;-58